Ruzaevka, Kazakhstan
Current Conditions -  °F | °C
As of 6:00 PM on Friday 28 Nov 2014 (Local Time) from UACK Reporting Station
Clear Clear  
Wind Chill: -28°   Ceiling: Unl
Heat Index: -13°   Visibility: 4mi
Dew Point: -18°   Wind: 7mph
Humidity: 77%   Direction: 190°S
Pressure: 30.74"   Gusts: NA
Location:  52.82°N, 66.97°E
Report Text: UACK 281200Z 19003MPS 6000 NSC M25/M28 Q1041 R20/010060 NOSIGRMK QFE756/1008
Loading
Personal Weather Stations






























Interactive Weather Map New forecast layout! Learn more

10-Day Weather Forecast

Advertisements
Track Severe Weather on mobile